Terminal Aerodrome Forecast
Issued by NWS

Current Version | Previous Version | Graphics & Text | Print | Product List | Glossary On
Versions: 1 2 3 4 5 6 7 8 9 10 11 12 13 14 15 16 17 18 19 20 21
000
FTUS41 KRLX 101739
TAFCKB
TAF
KCKB 101739Z 1018/1118 24011G18KT P6SM BKN026 OVC035
     FM101900 23010G18KT P6SM BKN035
     FM102300 23008G14KT P6SM BKN080
     FM110800 24006KT P6SM BKN035
     FM111000 24005KT P6SM BKN025
     FM111600 23005KT P6SM BKN035=

USA.gov is the U.S. government's official web portal to all federal, state and local government web resources and services.